createdAt,value
2023-01-31T00:01:48.139Z,1.10
2023-01-31T00:04:20.628Z,1.02
2023-01-31T00:06:54.276Z,1.02
2023-01-31T00:09:26.922Z,1.48
2023-01-31T00:11:59.936Z,1.15
2023-01-31T00:14:32.574Z,1.10
2023-01-31T00:17:05.466Z,1.45
2023-01-31T00:19:38.993Z,1.33
2023-01-31T00:22:11.945Z,0.88
2023-01-31T00:24:44.815Z,2.70
2023-01-31T00:27:17.675Z,0.88
2023-01-31T00:29:50.264Z,1.98
2023-01-31T00:32:23.308Z,1.63
2023-01-31T00:34:56.479Z,2.03
2023-01-31T00:37:29.271Z,2.63
2023-01-31T00:40:02.233Z,1.25
2023-01-31T00:42:35.540Z,1.35
2023-01-31T00:45:08.858Z,1.88
2023-01-31T00:47:41.840Z,1.38
2023-01-31T00:50:15.693Z,1.90
2023-01-31T00:52:48.588Z,2.17
2023-01-31T00:55:21.880Z,1.92
2023-01-31T00:57:55.034Z,2.55
2023-01-31T01:00:27.772Z,2.15
2023-01-31T01:03:15.610Z,1.58
2023-01-31T01:05:49.754Z,2.03
2023-01-31T01:08:23.301Z,0.95
2023-01-31T01:10:56.023Z,1.73
2023-01-31T01:13:28.912Z,1.63
2023-01-31T01:16:06.214Z,2.50
2023-01-31T01:18:39.228Z,1.38
2023-01-31T01:21:13.383Z,1.30
2023-01-31T01:23:47.578Z,2.17
2023-01-31T01:26:26.890Z,1.80
2023-01-31T01:29:13.214Z,1.17
2023-01-31T01:31:51.722Z,0.93
2023-01-31T01:34:24.576Z,0.77
2023-01-31T01:36:58.931Z,1.58
2023-01-31T01:39:36.210Z,1.20
2023-01-31T01:42:14.128Z,1.45
2023-01-31T01:44:48.767Z,1.73
2023-01-31T01:47:35.531Z,1.67
2023-01-31T01:50:09.011Z,1.13
2023-01-31T01:52:46.304Z,3.95
2023-01-31T01:55:22.930Z,1.73
2023-01-31T01:58:26.668Z,0.88
2023-01-31T02:01:17.512Z,1.05
2023-01-31T02:04:01.418Z,1.17
2023-01-31T02:06:39.514Z,1.55
2023-01-31T02:09:36.879Z,1.40
2023-01-31T02:12:16.021Z,1.10
2023-01-31T02:14:48.825Z,0.63
2023-01-31T02:17:22.124Z,1.25
2023-01-31T02:20:01.576Z,1.83
2023-01-31T02:22:39.126Z,0.60
2023-01-31T02:25:32.480Z,2.03
2023-01-31T02:30:44.302Z,0.80
2023-01-31T02:33:31.284Z,1.33
2023-01-31T02:36:18.661Z,1.05
2023-01-31T02:38:54.662Z,0.90
2023-01-31T02:41:40.019Z,0.85
2023-01-31T02:44:48.619Z,1.48
2023-01-31T02:47:27.722Z,0.90
2023-01-31T02:50:03.496Z,1.00
2023-01-31T02:52:45.861Z,1.33
2023-01-31T02:55:42.736Z,0.85
2023-01-31T02:58:18.442Z,0.90
2023-01-31T03:00:51.355Z,1.00
2023-01-31T03:03:28.986Z,1.65
2023-01-31T03:06:30.157Z,0.88
2023-01-31T03:09:03.016Z,1.33
2023-01-31T03:11:48.693Z,0.85
2023-01-31T03:14:32.922Z,0.85
2023-01-31T03:17:33.573Z,1.25
2023-01-31T03:20:24.914Z,1.23
2023-01-31T03:23:02.639Z,2.30
2023-01-31T03:25:36.318Z,2.10
2023-01-31T03:28:16.424Z,1.10
2023-01-31T03:31:07.718Z,1.27
2023-01-31T03:33:44.110Z,0.52
2023-01-31T03:36:26.080Z,0.90
2023-01-31T03:39:07.107Z,1.42
2023-01-31T03:41:48.563Z,0.95
2023-01-31T03:44:31.149Z,1.73
2023-01-31T03:47:09.516Z,1.00
2023-01-31T03:49:43.940Z,0.98
2023-01-31T03:52:23.583Z,0.68
2023-01-31T03:54:59.920Z,1.10
2023-01-31T03:57:35.006Z,0.70
2023-01-31T04:00:09.701Z,1.10
2023-01-31T04:02:54.899Z,0.77
2023-01-31T04:05:32.426Z,1.45
2023-01-31T04:08:06.981Z,1.10
2023-01-31T04:10:40.966Z,1.00
2023-01-31T04:13:13.848Z,1.60
2023-01-31T04:15:46.889Z,0.77
2023-01-31T04:18:19.601Z,0.88
2023-01-31T04:20:52.496Z,0.80
2023-01-31T04:23:26.890Z,0.90
2023-01-31T04:25:59.727Z,1.25
2023-01-31T04:28:32.219Z,0.75
2023-01-31T04:31:05.386Z,0.85
2023-01-31T04:33:38.346Z,0.93
2023-01-31T04:36:11.344Z,1.10
2023-01-31T04:38:44.032Z,1.08
2023-01-31T04:41:17.015Z,0.80
2023-01-31T04:43:49.567Z,0.98
2023-01-31T04:46:22.832Z,1.23
2023-01-31T04:48:55.570Z,0.80
2023-01-31T04:51:29.190Z,1.70
2023-01-31T04:54:02.010Z,0.88
2023-01-31T04:56:34.893Z,0.60
2023-01-31T04:59:07.548Z,1.52
2023-01-31T05:01:42.402Z,1.27
2023-01-31T05:04:15.092Z,0.80
2023-01-31T05:06:48.019Z,1.02
2023-01-31T05:09:21.255Z,0.95
2023-01-31T05:11:54.126Z,1.25
2023-01-31T05:14:28.354Z,1.75
2023-01-31T05:17:01.195Z,1.13
2023-01-31T05:19:33.765Z,1.27
2023-01-31T05:22:06.745Z,1.08
2023-01-31T05:24:39.321Z,1.08
2023-01-31T05:27:12.362Z,0.90
2023-01-31T05:29:46.104Z,1.20
2023-01-31T05:32:20.204Z,1.08
2023-01-31T05:34:52.848Z,0.88
2023-01-31T05:37:25.788Z,1.13
2023-01-31T05:39:58.355Z,1.83
2023-01-31T05:42:31.236Z,2.33
2023-01-31T05:45:04.147Z,3.88
2023-01-31T05:47:37.327Z,3.10
2023-01-31T05:50:10.209Z,2.03
2023-01-31T05:52:43.235Z,2.22
2023-01-31T05:55:15.707Z,2.83
2023-01-31T05:57:48.972Z,1.67
2023-01-31T06:00:22.159Z,1.90
2023-01-31T06:02:58.185Z,1.83
2023-01-31T06:05:31.426Z,2.53
2023-01-31T06:08:04.824Z,1.65
2023-01-31T06:10:37.289Z,2.30
2023-01-31T06:13:10.168Z,1.38
2023-01-31T06:15:45.849Z,2.70
2023-01-31T06:18:18.744Z,2.30
2023-01-31T06:20:51.483Z,3.42
2023-01-31T06:23:24.500Z,1.90
2023-01-31T06:25:57.168Z,1.67
2023-01-31T06:28:30.673Z,1.15
2023-01-31T06:31:06.913Z,6.53
2023-01-31T06:33:46.854Z,1.13
2023-01-31T06:36:20.062Z,2.10
2023-01-31T06:38:53.432Z,2.28
2023-01-31T06:41:26.154Z,2.63
2023-01-31T06:43:59.086Z,3.47
2023-01-31T06:46:31.701Z,1.40
2023-01-31T06:49:04.759Z,1.75
2023-01-31T06:51:37.259Z,2.20
2023-01-31T06:54:10.297Z,3.42
2023-01-31T06:56:42.746Z,3.08
2023-01-31T06:59:15.761Z,8.05
2023-01-31T07:01:48.522Z,7.25
2023-01-31T07:04:22.064Z,3.92
2023-01-31T07:06:55.070Z,2.13
2023-01-31T07:09:28.049Z,1.92
2023-01-31T07:12:00.508Z,1.05
2023-01-31T07:14:33.397Z,1.02
2023-01-31T07:17:05.951Z,1.60
2023-01-31T07:19:39.035Z,2.38
2023-01-31T07:22:11.795Z,1.77
2023-01-31T07:24:44.947Z,2.95
2023-01-31T07:27:17.745Z,2.10
2023-01-31T07:29:50.597Z,2.88
2023-01-31T07:32:23.302Z,3.03
2023-01-31T07:34:56.199Z,2.50
2023-01-31T07:37:28.788Z,2.25
2023-01-31T07:40:01.773Z,2.25
2023-01-31T07:42:34.349Z,2.42
2023-01-31T07:45:22.443Z,1.38
2023-01-31T07:47:57.763Z,1.75
2023-01-31T07:50:30.869Z,2.13
2023-01-31T07:53:03.431Z,2.25
2023-01-31T07:55:36.416Z,1.30
2023-01-31T07:58:08.986Z,1.88
2023-01-31T08:01:00.657Z,1.20
2023-01-31T08:03:33.941Z,1.23
2023-01-31T08:06:11.703Z,1.33
2023-01-31T08:08:46.146Z,1.63
2023-01-31T08:11:19.093Z,1.67
2023-01-31T08:13:51.742Z,1.10
2023-01-31T08:16:24.618Z,0.98
2023-01-31T08:18:57.079Z,2.72
2023-01-31T08:21:30.492Z,4.05
2023-01-31T08:24:03.163Z,2.45
2023-01-31T08:26:36.996Z,2.10
2023-01-31T08:29:09.712Z,3.03
2023-01-31T08:31:42.790Z,4.80
2023-01-31T08:34:15.334Z,4.13
2023-01-31T08:36:48.301Z,1.50
2023-01-31T08:39:20.979Z,2.20
2023-01-31T08:41:54.061Z,1.73
2023-01-31T08:44:26.652Z,0.90
2023-01-31T08:47:02.302Z,1.08
2023-01-31T08:49:37.309Z,1.27
2023-01-31T08:52:10.177Z,1.13
2023-01-31T08:54:42.715Z,0.88
2023-01-31T08:57:15.912Z,2.42
2023-01-31T08:59:48.482Z,1.77
2023-01-31T09:02:21.478Z,1.00
2023-01-31T09:04:54.198Z,1.38
2023-01-31T09:07:27.042Z,1.92
2023-01-31T09:09:59.619Z,0.77
2023-01-31T09:12:34.480Z,1.33
2023-01-31T09:15:07.250Z,1.33
2023-01-31T09:17:40.861Z,1.05
2023-01-31T09:20:13.551Z,0.80
2023-01-31T09:22:46.450Z,1.58
2023-01-31T09:25:22.044Z,1.52
2023-01-31T09:28:00.507Z,1.02
2023-01-31T09:30:33.388Z,1.45
2023-01-31T09:33:06.333Z,1.30
2023-01-31T09:35:38.848Z,2.25
2023-01-31T09:38:11.744Z,1.52
2023-01-31T09:40:44.277Z,1.27
2023-01-31T09:43:18.396Z,2.13
2023-01-31T09:45:51.392Z,1.95
2023-01-31T09:48:26.812Z,1.00
2023-01-31T09:50:59.832Z,2.67
2023-01-31T09:53:34.846Z,2.75
2023-01-31T09:56:10.906Z,2.10
2023-01-31T09:59:02.050Z,3.03
2023-01-31T10:01:50.154Z,2.63
2023-01-31T10:04:29.645Z,1.95
2023-01-31T10:07:05.857Z,0.80
2023-01-31T10:09:38.742Z,1.30
2023-01-31T10:12:16.750Z,2.17
2023-01-31T10:14:51.977Z,1.23
2023-01-31T10:17:24.584Z,1.13
2023-01-31T10:20:09.022Z,1.15
2023-01-31T10:22:47.231Z,1.48
2023-01-31T10:25:35.660Z,0.90
2023-01-31T10:28:15.812Z,1.00
2023-01-31T10:30:48.886Z,0.88
2023-01-31T10:33:24.719Z,1.58
2023-01-31T10:36:00.934Z,1.30
2023-01-31T10:38:39.453Z,1.73
2023-01-31T10:41:15.126Z,1.60
2023-01-31T10:43:54.392Z,1.33
2023-01-31T10:46:27.601Z,1.08
2023-01-31T10:49:00.310Z,0.60
2023-01-31T10:52:07.044Z,1.88
2023-01-31T10:54:42.325Z,2.05
2023-01-31T10:57:15.642Z,2.20
2023-01-31T10:59:49.160Z,1.60
2023-01-31T11:02:27.252Z,1.30
2023-01-31T11:05:00.325Z,2.17
2023-01-31T11:07:33.450Z,1.67
2023-01-31T11:10:23.876Z,0.98
2023-01-31T11:13:00.075Z,3.17
2023-01-31T11:15:39.813Z,1.45
2023-01-31T11:18:23.900Z,2.40
2023-01-31T11:20:57.045Z,2.55
2023-01-31T11:23:31.626Z,2.35
2023-01-31T11:26:04.490Z,2.13
2023-01-31T11:28:38.612Z,2.47
2023-01-31T11:31:22.157Z,1.60
2023-01-31T11:34:02.214Z,1.20
2023-01-31T11:36:42.622Z,1.10
2023-01-31T11:39:24.591Z,1.43
2023-01-31T11:41:57.349Z,1.63
2023-01-31T11:44:30.457Z,1.10
2023-01-31T11:47:04.868Z,2.38
2023-01-31T11:49:41.844Z,2.25
2023-01-31T11:52:20.322Z,2.20
2023-01-31T11:54:55.495Z,2.35
2023-01-31T11:57:35.541Z,1.20
2023-01-31T12:00:28.481Z,1.25
2023-01-31T12:03:08.311Z,1.90
2023-01-31T12:05:43.742Z,1.20
2023-01-31T12:08:33.585Z,1.83
2023-01-31T12:11:06.600Z,0.80
2023-01-31T12:13:52.433Z,1.42
2023-01-31T12:16:26.943Z,1.45
2023-01-31T12:19:14.883Z,3.42
2023-01-31T12:22:05.471Z,1.23
2023-01-31T12:24:48.351Z,2.33
2023-01-31T12:27:30.500Z,2.03
2023-01-31T12:30:06.088Z,1.40
2023-01-31T12:32:38.974Z,1.65
2023-01-31T12:35:14.341Z,7.63
2023-01-31T12:37:53.323Z,4.25
2023-01-31T12:40:39.354Z,1.52
2023-01-31T12:43:30.670Z,2.35
2023-01-31T12:46:07.584Z,2.28
2023-01-31T12:48:55.794Z,2.03
2023-01-31T12:51:31.220Z,3.25
2023-01-31T12:54:26.228Z,5.95
2023-01-31T12:57:18.389Z,3.15
2023-01-31T12:59:56.995Z,3.38
2023-01-31T13:02:29.538Z,2.60
2023-01-31T13:05:05.864Z,2.90
2023-01-31T13:07:53.486Z,2.95
2023-01-31T13:10:30.591Z,4.28
2023-01-31T13:13:04.918Z,3.67
2023-01-31T13:15:41.408Z,3.80
2023-01-31T13:18:14.847Z,3.40
2023-01-31T13:20:50.968Z,3.50
2023-01-31T13:23:38.754Z,1.75
2023-01-31T13:26:15.251Z,2.95
2023-01-31T13:28:53.675Z,2.97
2023-01-31T13:31:32.033Z,3.70
2023-01-31T13:34:17.816Z,2.78
2023-01-31T13:37:00.466Z,2.20
2023-01-31T13:39:49.118Z,2.25
2023-01-31T13:42:22.348Z,1.75
2023-01-31T13:44:55.103Z,2.33
2023-01-31T13:47:30.551Z,2.08
2023-01-31T13:50:05.336Z,2.28
2023-01-31T13:52:52.423Z,2.47
2023-01-31T13:55:45.950Z,1.60
2023-01-31T13:58:27.758Z,2.20
2023-01-31T14:01:05.339Z,2.80
2023-01-31T14:03:56.954Z,3.15
2023-01-31T14:06:47.950Z,3.22
2023-01-31T14:09:25.814Z,1.92
2023-01-31T14:12:00.188Z,1.33
2023-01-31T14:14:42.199Z,4.32
2023-01-31T14:17:30.222Z,2.38
2023-01-31T14:20:05.485Z,3.10
2023-01-31T14:22:41.655Z,2.63
2023-01-31T14:25:15.482Z,4.32
2023-01-31T14:27:57.182Z,3.35
2023-01-31T14:30:30.229Z,1.90
2023-01-31T14:33:11.976Z,4.32
2023-01-31T14:36:03.732Z,9.00
2023-01-31T14:38:45.578Z,8.98
2023-01-31T14:41:24.419Z,3.92
2023-01-31T14:44:15.560Z,8.43
2023-01-31T14:46:48.565Z,9.43
2023-01-31T14:49:30.708Z,5.30
2023-01-31T14:52:03.484Z,9.63
2023-01-31T14:54:41.909Z,7.45
2023-01-31T14:57:18.108Z,6.20
2023-01-31T15:00:05.013Z,7.45
2023-01-31T15:03:02.591Z,5.57
2023-01-31T15:05:35.163Z,5.40
2023-01-31T15:08:13.757Z,8.25
2023-01-31T15:11:02.937Z,8.57
2023-01-31T15:13:42.749Z,6.22
2023-01-31T15:16:23.886Z,3.80
2023-01-31T15:19:18.060Z,6.97
2023-01-31T15:21:59.031Z,4.03
2023-01-31T15:24:34.110Z,3.03
2023-01-31T15:27:28.911Z,4.47
2023-01-31T15:30:05.782Z,3.10
2023-01-31T15:32:41.200Z,4.35
2023-01-31T15:35:16.875Z,2.88
2023-01-31T15:37:55.819Z,3.30
2023-01-31T15:40:29.249Z,3.13
2023-01-31T15:43:18.640Z,2.25
2023-01-31T15:45:52.693Z,4.13
2023-01-31T15:48:25.323Z,4.07
2023-01-31T15:50:59.706Z,6.97
2023-01-31T15:53:33.256Z,5.50
2023-01-31T15:56:07.875Z,4.80
2023-01-31T15:58:41.799Z,6.75
2023-01-31T16:01:18.100Z,7.65
2023-01-31T16:03:58.203Z,7.68
2023-01-31T16:06:35.216Z,5.45
2023-01-31T16:09:08.364Z,6.07
2023-01-31T16:11:41.356Z,5.32
2023-01-31T16:14:14.154Z,4.80
2023-01-31T16:16:49.073Z,4.97
2023-01-31T16:19:26.891Z,3.17
2023-01-31T16:22:00.159Z,5.57
2023-01-31T16:24:33.258Z,5.07
2023-01-31T16:27:11.910Z,5.95
2023-01-31T16:29:46.823Z,10.05
2023-01-31T16:32:19.768Z,1.88
2023-01-31T16:34:53.552Z,3.03
2023-01-31T16:37:34.139Z,3.75
2023-01-31T16:40:42.017Z,4.53
2023-01-31T16:43:28.164Z,3.92
2023-01-31T16:46:09.302Z,3.60
2023-01-31T16:48:42.460Z,2.80
2023-01-31T16:51:28.386Z,2.28
2023-01-31T16:54:10.653Z,1.83
2023-01-31T16:56:44.175Z,3.45
2023-01-31T16:59:49.643Z,2.70
2023-01-31T17:02:26.851Z,3.67
2023-01-31T17:05:18.873Z,3.13
2023-01-31T17:07:53.936Z,2.40
2023-01-31T17:10:30.140Z,2.33
2023-01-31T17:13:07.038Z,1.92
2023-01-31T17:15:41.080Z,2.88
2023-01-31T17:18:13.899Z,2.05
2023-01-31T17:20:51.191Z,2.30
2023-01-31T17:23:23.745Z,2.67
2023-01-31T17:25:56.549Z,3.13
2023-01-31T17:28:29.085Z,4.65
2023-01-31T17:31:02.187Z,5.47
2023-01-31T17:33:34.663Z,3.70
2023-01-31T17:36:09.073Z,4.05
2023-01-31T17:38:42.370Z,4.18
2023-01-31T17:41:17.493Z,1.80
2023-01-31T17:43:50.269Z,2.85
2023-01-31T17:46:23.164Z,2.13
2023-01-31T17:48:55.792Z,2.47
2023-01-31T17:51:28.823Z,3.08
2023-01-31T17:54:03.368Z,2.55
2023-01-31T17:56:36.409Z,2.35
2023-01-31T17:59:15.182Z,2.30
2023-01-31T18:02:01.239Z,2.83
2023-01-31T18:04:33.831Z,2.92
2023-01-31T18:07:06.716Z,1.92
2023-01-31T18:09:39.359Z,2.65
2023-01-31T18:12:12.372Z,4.18
2023-01-31T18:14:44.816Z,2.38
2023-01-31T18:17:20.233Z,3.80
2023-01-31T18:19:52.831Z,3.40
2023-01-31T18:22:26.036Z,3.42
2023-01-31T18:24:58.661Z,2.80
2023-01-31T18:27:31.629Z,3.85
2023-01-31T18:30:06.112Z,2.58
2023-01-31T18:32:38.975Z,4.10
2023-01-31T18:35:11.527Z,2.30
2023-01-31T18:37:44.573Z,2.45
2023-01-31T18:40:17.243Z,2.85
2023-01-31T18:42:50.165Z,3.85
2023-01-31T18:45:22.995Z,2.05
2023-01-31T18:47:56.264Z,3.08
2023-01-31T18:50:30.986Z,2.78
2023-01-31T18:53:04.307Z,2.53
2023-01-31T18:55:36.918Z,3.67
2023-01-31T18:58:09.865Z,3.40
2023-01-31T19:00:44.000Z,4.03
2023-01-31T19:03:16.981Z,3.33
2023-01-31T19:05:49.538Z,3.72
2023-01-31T19:08:22.406Z,1.98
2023-01-31T19:10:55.038Z,3.20
2023-01-31T19:13:27.949Z,2.38
2023-01-31T19:16:01.100Z,3.45
2023-01-31T19:18:34.251Z,3.75
2023-01-31T19:21:25.710Z,4.13
2023-01-31T19:26:33.168Z,3.65
2023-01-31T19:29:09.347Z,5.43
2023-01-31T19:31:42.557Z,4.22
2023-01-31T19:34:15.519Z,2.80
2023-01-31T19:36:49.365Z,2.13
2023-01-31T19:39:22.355Z,1.40
2023-01-31T19:41:54.796Z,3.15
2023-01-31T19:44:27.817Z,2.58
2023-01-31T19:47:00.297Z,2.38
2023-01-31T19:49:33.607Z,8.10
2023-01-31T19:52:06.436Z,4.28
2023-01-31T19:54:41.617Z,6.43
2023-01-31T19:57:14.210Z,3.22
2023-01-31T19:59:47.186Z,7.30
2023-01-31T20:02:19.765Z,6.15
2023-01-31T20:04:53.289Z,2.15
2023-01-31T20:07:26.380Z,7.90
2023-01-31T20:09:59.422Z,3.80
2023-01-31T20:12:31.956Z,4.57
2023-01-31T20:15:06.489Z,4.72
2023-01-31T20:17:38.994Z,7.45
2023-01-31T20:20:12.164Z,4.53
2023-01-31T20:22:44.712Z,3.97
2023-01-31T20:25:17.574Z,3.15
2023-01-31T20:27:50.119Z,2.40
2023-01-31T20:30:23.862Z,2.20
2023-01-31T20:32:56.441Z,1.77
2023-01-31T20:35:29.604Z,3.75
2023-01-31T20:38:02.158Z,2.60
2023-01-31T20:40:35.229Z,1.65
2023-01-31T20:43:07.689Z,1.67
2023-01-31T20:45:40.637Z,2.50
2023-01-31T20:48:13.589Z,2.10
2023-01-31T20:50:54.442Z,1.48
2023-01-31T20:53:29.449Z,2.92
2023-01-31T20:56:03.525Z,1.25
2023-01-31T20:58:36.914Z,1.88
2023-01-31T21:01:10.503Z,2.42
2023-01-31T21:03:43.215Z,3.47
2023-01-31T21:06:16.152Z,1.40
2023-01-31T21:08:48.725Z,2.17
2023-01-31T21:11:21.658Z,1.90
2023-01-31T21:13:54.227Z,2.00
2023-01-31T21:16:27.285Z,2.03
2023-01-31T21:18:59.853Z,1.73
2023-01-31T21:21:33.708Z,1.60
2023-01-31T21:24:06.294Z,1.80
2023-01-31T21:26:39.175Z,2.42
2023-01-31T21:29:11.731Z,1.42
2023-01-31T21:31:44.661Z,1.55
2023-01-31T21:34:17.283Z,1.80
2023-01-31T21:36:50.206Z,1.50
2023-01-31T21:39:22.763Z,3.13
2023-01-31T21:42:13.907Z,1.35
2023-01-31T21:44:47.658Z,2.33
2023-01-31T21:47:20.527Z,1.67
2023-01-31T21:49:53.049Z,1.33
2023-01-31T21:52:25.934Z,2.50
2023-01-31T21:54:58.468Z,1.38
2023-01-31T21:57:31.300Z,1.55
2023-01-31T22:00:04.099Z,1.60
2023-01-31T22:02:37.838Z,1.30
2023-01-31T22:05:10.349Z,1.63
2023-01-31T22:07:43.273Z,1.33
2023-01-31T22:10:16.009Z,1.35
2023-01-31T22:12:48.862Z,1.30
2023-01-31T22:15:21.368Z,1.67
2023-01-31T22:17:54.261Z,0.98
2023-01-31T22:20:26.881Z,3.17
2023-01-31T22:22:59.828Z,1.58
2023-01-31T22:25:32.298Z,2.20
2023-01-31T22:28:05.263Z,1.17
2023-01-31T22:30:37.946Z,1.33
2023-01-31T22:33:10.853Z,1.25
2023-01-31T22:35:43.426Z,1.48
2023-01-31T22:38:16.354Z,1.70
2023-01-31T22:40:50.213Z,2.22
2023-01-31T22:43:23.128Z,2.03
2023-01-31T22:45:56.447Z,1.98
2023-01-31T22:48:29.661Z,2.00
2023-01-31T22:51:03.598Z,1.98
2023-01-31T22:53:37.242Z,1.40
2023-01-31T22:56:20.454Z,1.08
2023-01-31T22:58:57.372Z,1.20
2023-01-31T23:01:31.364Z,1.40
2023-01-31T23:04:05.642Z,1.90
2023-01-31T23:06:38.805Z,1.00
2023-01-31T23:09:11.593Z,0.95
2023-01-31T23:11:44.074Z,1.58
2023-01-31T23:14:16.895Z,1.00
2023-01-31T23:17:07.800Z,1.13
2023-01-31T23:19:40.644Z,0.90
2023-01-31T23:22:14.288Z,1.00
2023-01-31T23:24:47.076Z,1.05
2023-01-31T23:27:19.510Z,0.88
2023-01-31T23:29:52.369Z,1.00
2023-01-31T23:32:24.887Z,1.10
2023-01-31T23:34:57.665Z,1.58
2023-01-31T23:37:30.380Z,0.90
2023-01-31T23:40:04.266Z,1.00
2023-01-31T23:42:36.664Z,2.17
2023-01-31T23:45:09.598Z,1.00
2023-01-31T23:47:43.510Z,0.95
2023-01-31T23:50:16.608Z,0.85
2023-01-31T23:52:48.987Z,0.95
2023-01-31T23:55:23.038Z,1.20
2023-01-31T23:57:55.521Z,0.70
